sensor_id;sensor_type;location;lat;lon;timestamp;pressure;altitude;pressure_sealevel;temperature;humidity
3917;BME280;1973;50.518;7.318;2022-09-09T00:03:27;100260.28;;;18.35;100.00
3917;BME280;1973;50.518;7.318;2022-09-09T00:06:21;100264.19;;;18.34;100.00
3917;BME280;1973;50.518;7.318;2022-09-09T00:11:33;100259.72;;;18.38;100.00
3917;BME280;1973;50.518;7.318;2022-09-09T00:14:15;100249.97;;;18.35;100.00
3917;BME280;1973;50.518;7.318;2022-09-09T00:16:50;100255.53;;;18.35;100.00
3917;BME280;1973;50.518;7.318;2022-09-09T00:19:25;100260.28;;;18.35;100.00
3917;BME280;1973;50.518;7.318;2022-09-09T00:24:27;100259.16;;;18.31;100.00
3917;BME280;1973;50.518;7.318;2022-09-09T00:27:30;100255.56;;;18.25;100.00
3917;BME280;1973;50.518;7.318;2022-09-09T00:30:22;100251.38;;;18.18;100.00
3917;BME280;1973;50.518;7.318;2022-09-09T00:32:50;100261.41;;;18.09;100.00
3917;BME280;1973;50.518;7.318;2022-09-09T00:35:40;100266.41;;;18.02;100.00
3917;BME280;1973;50.518;7.318;2022-09-09T00:38:14;100258.03;;;17.96;100.00
3917;BME280;1973;50.518;7.318;2022-09-09T00:40:48;100258.59;;;17.93;100.00
3917;BME280;1973;50.518;7.318;2022-09-09T00:43:29;100250.25;;;17.88;100.00
3917;BME280;1973;50.518;7.318;2022-09-09T00:48:38;100259.69;;;17.82;100.00
3917;BME280;1973;50.518;7.318;2022-09-09T00:51:20;100275.28;;;17.78;100.00
3917;BME280;1973;50.518;7.318;2022-09-09T00:56:37;100263.03;;;17.69;100.00
3917;BME280;1973;50.518;7.318;2022-09-09T01:01:54;100258.28;;;17.60;100.00
3917;BME280;1973;50.518;7.318;2022-09-09T01:04:29;100271.63;;;17.58;100.00
3917;BME280;1973;50.518;7.318;2022-09-09T01:07:16;100266.59;;;17.55;100.00
3917;BME280;1973;50.518;7.318;2022-09-09T01:09:56;100264.34;;;17.51;100.00
3917;BME280;1973;50.518;7.318;2022-09-09T01:12:42;100250.97;;;17.48;100.00
3917;BME280;1973;50.518;7.318;2022-09-09T01:15:25;100252.91;;;17.43;100.00
3917;BME280;1973;50.518;7.318;2022-09-09T01:18:00;100257.09;;;17.40;100.00
3917;BME280;1973;50.518;7.318;2022-09-09T01:28:36;100256.22;;;17.35;100.00
3917;BME280;1973;50.518;7.318;2022-09-09T01:31:04;100255.38;;;17.34;100.00
3917;BME280;1973;50.518;7.318;2022-09-09T01:33:32;100264.56;;;17.35;100.00
3917;BME280;1973;50.518;7.318;2022-09-09T01:38:29;100259.03;;;17.40;100.00
3917;BME280;1973;50.518;7.318;2022-09-09T01:40:57;100257.66;;;17.42;100.00
3917;BME280;1973;50.518;7.318;2022-09-09T01:43:25;100265.44;;;17.45;100.00
3917;BME280;1973;50.518;7.318;2022-09-09T01:45:55;100258.78;;;17.46;100.00
3917;BME280;1973;50.518;7.318;2022-09-09T01:48:23;100261.00;;;17.49;100.00
3917;BME280;1973;50.518;7.318;2022-09-09T01:50:50;100260.16;;;17.49;100.00
3917;BME280;1973;50.518;7.318;2022-09-09T01:53:18;100257.38;;;17.49;100.00
3917;BME280;1973;50.518;7.318;2022-09-09T01:56:11;100266.84;;;17.48;100.00
3917;BME280;1973;50.518;7.318;2022-09-09T01:58:54;100258.47;;;17.43;100.00
3917;BME280;1973;50.518;7.318;2022-09-09T02:01:46;100265.44;;;17.40;100.00
3917;BME280;1973;50.518;7.318;2022-09-09T02:04:43;100262.09;;;17.38;100.00
3917;BME280;1973;50.518;7.318;2022-09-09T02:10:11;100255.69;;;17.38;100.00
3917;BME280;1973;50.518;7.318;2022-09-09T02:12:44;100259.03;;;17.40;100.00
3917;BME280;1973;50.518;7.318;2022-09-09T02:15:23;100265.44;;;17.40;100.00
3917;BME280;1973;50.518;7.318;2022-09-09T02:17:56;100256.81;;;17.42;100.00
3917;BME280;1973;50.518;7.318;2022-09-09T02:20:25;100249.03;;;17.44;100.00
3917;BME280;1973;50.518;7.318;2022-09-09T02:22:58;100255.13;;;17.41;100.00
3917;BME280;1973;50.518;7.318;2022-09-09T02:25:28;100247.63;;;17.41;100.00
3917;BME280;1973;50.518;7.318;2022-09-09T02:27:56;100253.19;;;17.41;100.00
3917;BME280;1973;50.518;7.318;2022-09-09T02:30:26;100245.69;;;17.42;100.00
3917;BME280;1973;50.518;7.318;2022-09-09T02:32:56;100252.91;;;17.43;100.00
3917;BME280;1973;50.518;7.318;2022-09-09T02:35:25;100247.34;;;17.43;100.00
3917;BME280;1973;50.518;7.318;2022-09-09T02:37:56;100254.59;;;17.44;100.00
3917;BME280;1973;50.518;7.318;2022-09-09T02:40:25;100250.97;;;17.43;100.00
3917;BME280;1973;50.518;7.318;2022-09-09T02:42:54;100254.59;;;17.44;100.00
3917;BME280;1973;50.518;7.318;2022-09-09T02:45:25;100244.28;;;17.44;100.00
3917;BME280;1973;50.518;7.318;2022-09-09T02:48:18;100243.72;;;17.42;100.00
3917;BME280;1973;50.518;7.318;2022-09-09T02:51:08;100241.50;;;17.39;100.00
3917;BME280;1973;50.518;7.318;2022-09-09T02:53:49;100245.38;;;17.38;100.00
3917;BME280;1973;50.518;7.318;2022-09-09T02:56:20;100248.44;;;17.37;100.00
3917;BME280;1973;50.518;7.318;2022-09-09T02:58:49;100247.63;;;17.36;100.00
3917;BME280;1973;50.518;7.318;2022-09-09T03:01:18;100241.78;;;17.33;100.00
3917;BME280;1973;50.518;7.318;2022-09-09T03:03:44;100242.28;;;17.30;100.00
3917;BME280;1973;50.518;7.318;2022-09-09T03:06:12;100238.41;;;17.31;100.00
3917;BME280;1973;50.518;7.318;2022-09-09T03:08:39;100239.50;;;17.30;100.00
3917;BME280;1973;50.518;7.318;2022-09-09T03:11:07;100239.81;;;17.28;100.00
3917;BME280;1973;50.518;7.318;2022-09-09T03:13:33;100243.13;;;17.30;100.00
3917;BME280;1973;50.518;7.318;2022-09-09T03:16:00;100239.25;;;17.31;100.00
3917;BME280;1973;50.518;7.318;2022-09-09T03:18:26;100242.28;;;17.30;100.00
3917;BME280;1973;50.518;7.318;2022-09-09T03:20:54;100237.00;;;17.28;100.00
3917;BME280;1973;50.518;7.318;2022-09-09T03:23:20;100237.28;;;17.27;100.00
3917;BME280;1973;50.518;7.318;2022-09-09T03:25:48;100232.81;;;17.26;100.00
3917;BME280;1973;50.518;7.318;2022-09-09T03:28:15;100235.31;;;17.22;100.00
3917;BME280;1973;50.518;7.318;2022-09-09T03:30:42;100237.81;;;17.19;100.00
3917;BME280;1973;50.518;7.318;2022-09-09T03:33:08;100237.25;;;17.17;100.00
3917;BME280;1973;50.518;7.318;2022-09-09T03:35:35;100237.81;;;17.14;100.00
3917;BME280;1973;50.518;7.318;2022-09-09T03:38:01;100241.69;;;17.13;100.00
3917;BME280;1973;50.518;7.318;2022-09-09T03:40:27;100247.78;;;17.10;100.00
3917;BME280;1973;50.518;7.318;2022-09-09T03:42:54;100254.47;;;17.09;100.00
3917;BME280;1973;50.518;7.318;2022-09-09T03:45:20;100251.69;;;17.09;100.00
3917;BME280;1973;50.518;7.318;2022-09-09T03:47:47;100247.78;;;17.10;100.00
3917;BME280;1973;50.518;7.318;2022-09-09T03:50:13;100249.47;;;17.11;100.00
3917;BME280;1973;50.518;7.318;2022-09-09T03:52:41;100242.22;;;17.10;100.00
3917;BME280;1973;50.518;7.318;2022-09-09T03:55:08;100234.16;;;17.08;100.00
3917;BME280;1973;50.518;7.318;2022-09-09T03:57:36;100235.00;;;17.09;100.00
3917;BME280;1973;50.518;7.318;2022-09-09T04:00:04;100240.56;;;17.09;100.00
3917;BME280;1973;50.518;7.318;2022-09-09T04:02:31;100234.69;;;17.05;100.00
3917;BME280;1973;50.518;7.318;2022-09-09T04:04:58;100243.88;;;17.06;100.00
3917;BME280;1973;50.518;7.318;2022-09-09T04:07:25;100241.66;;;17.02;100.00
3917;BME280;1973;50.518;7.318;2022-09-09T04:09:53;100244.69;;;17.01;100.00
3917;BME280;1973;50.518;7.318;2022-09-09T04:12:20;100241.91;;;17.01;100.00
3917;BME280;1973;50.518;7.318;2022-09-09T04:14:48;100249.41;;;17.00;100.00
3917;BME280;1973;50.518;7.318;2022-09-09T04:17:15;100247.75;;;16.99;100.00
3917;BME280;1973;50.518;7.318;2022-09-09T04:19:41;100254.97;;;17.00;100.00
3917;BME280;1973;50.518;7.318;2022-09-09T04:22:08;100256.66;;;17.01;100.00
3917;BME280;1973;50.518;7.318;2022-09-09T04:24:35;100262.78;;;17.03;100.00
3917;BME280;1973;50.518;7.318;2022-09-09T04:27:02;100265.56;;;17.03;100.00
3917;BME280;1973;50.518;7.318;2022-09-09T04:29:28;100271.69;;;17.06;100.00
3917;BME280;1973;50.518;7.318;2022-09-09T04:31:54;100272.25;;;17.08;100.00
3917;BME280;1973;50.518;7.318;2022-09-09T04:34:21;100269.50;;;17.13;100.00
3917;BME280;1973;50.518;7.318;2022-09-09T04:36:47;100261.72;;;17.15;100.00
3917;BME280;1973;50.518;7.318;2022-09-09T04:39:14;100256.47;;;17.18;100.00
3917;BME280;1973;50.518;7.318;2022-09-09T04:41:40;100261.47;;;17.21;100.00
3917;BME280;1973;50.518;7.318;2022-09-09T04:44:07;100260.34;;;17.22;100.00
3917;BME280;1973;50.518;7.318;2022-09-09T04:46:33;100267.34;;;17.25;100.00
3917;BME280;1973;50.518;7.318;2022-09-09T04:49:00;100265.38;;;17.25;100.00
3917;BME280;1973;50.518;7.318;2022-09-09T04:51:27;100265.94;;;17.27;100.00
3917;BME280;1973;50.518;7.318;2022-09-09T04:53:54;100276.53;;;17.30;100.00
3917;BME280;1973;50.518;7.318;2022-09-09T04:56:20;100275.72;;;17.35;100.00
3917;BME280;1973;50.518;7.318;2022-09-09T04:58:47;100270.44;;;17.38;100.00
3917;BME280;1973;50.518;7.318;2022-09-09T05:01:16;100259.03;;;17.40;100.00
3917;BME280;1973;50.518;7.318;2022-09-09T05:03:46;100263.75;;;17.39;100.00
3917;BME280;1973;50.518;7.318;2022-09-09T05:06:15;100266.25;;;17.41;100.00
3917;BME280;1973;50.518;7.318;2022-09-09T05:08:43;100260.69;;;17.41;100.00
3917;BME280;1973;50.518;7.318;2022-09-09T05:11:21;100273.78;;;17.40;100.00
3917;BME280;1973;50.518;7.318;2022-09-09T05:13:52;100277.09;;;17.37;100.00
3917;BME280;1973;50.518;7.318;2022-09-09T05:16:20;100280.72;;;17.38;100.00
3917;BME280;1973;50.518;7.318;2022-09-09T05:18:47;100274.59;;;17.36;100.00
3917;BME280;1973;50.518;7.318;2022-09-09T05:21:15;100285.19;;;17.39;100.00
3917;BME280;1973;50.518;7.318;2022-09-09T05:23:42;100280.47;;;17.39;100.00
3917;BME280;1973;50.518;7.318;2022-09-09T05:26:17;100277.38;;;17.41;100.00
3917;BME280;1973;50.518;7.318;2022-09-09T05:28:44;100281.31;;;17.40;100.00
3917;BME280;1973;50.518;7.318;2022-09-09T05:31:11;100272.94;;;17.35;100.00
3917;BME280;1973;50.518;7.318;2022-09-09T05:33:43;100280.44;;;17.34;100.00
3917;BME280;1973;50.518;7.318;2022-09-09T05:36:17;100281.53;;;17.33;100.00
3917;BME280;1973;50.518;7.318;2022-09-09T05:38:44;100282.38;;;17.29;100.00
3917;BME280;1973;50.518;7.318;2022-09-09T05:41:12;100275.16;;;17.33;100.00
3917;BME280;1973;50.518;7.318;2022-09-09T05:43:39;100279.88;;;17.37;100.00
3917;BME280;1973;50.518;7.318;2022-09-09T05:46:10;100273.25;;;17.43;100.00
3917;BME280;1973;50.518;7.318;2022-09-09T05:48:40;100277.97;;;17.48;100.00
3917;BME280;1973;50.518;7.318;2022-09-09T05:51:09;100278.81;;;17.48;100.00
3917;BME280;1973;50.518;7.318;2022-09-09T05:53:36;100272.94;;;17.45;100.00
3917;BME280;1973;50.518;7.318;2022-09-09T05:56:05;100277.44;;;17.51;100.00
3917;BME280;1973;50.518;7.318;2022-09-09T05:58:33;100274.66;;;17.56;100.00
3917;BME280;1973;50.518;7.318;2022-09-09T06:01:21;100269.41;;;17.60;100.00
3917;BME280;1973;50.518;7.318;2022-09-09T06:03:49;100278.56;;;17.55;100.00
3917;BME280;1973;50.518;7.318;2022-09-09T06:06:24;100276.88;;;17.54;100.00
3917;BME280;1973;50.518;7.318;2022-09-09T06:08:54;100280.53;;;17.60;100.00
3917;BME280;1973;50.518;7.318;2022-09-09T06:11:25;100267.19;;;17.62;100.00
3917;BME280;1973;50.518;7.318;2022-09-09T06:13:52;100267.19;;;17.62;100.00
3917;BME280;1973;50.518;7.318;2022-09-09T06:16:22;100264.69;;;17.60;100.00
3917;BME280;1973;50.518;7.318;2022-09-09T06:18:54;100258.56;;;17.63;100.00
3917;BME280;1973;50.518;7.318;2022-09-09T06:21:26;100262.47;;;17.62;100.00
3917;BME280;1973;50.518;7.318;2022-09-09T06:23:53;100264.13;;;17.63;100.00
3917;BME280;1973;50.518;7.318;2022-09-09T06:26:27;100267.47;;;17.65;100.00
3917;BME280;1973;50.518;7.318;2022-09-09T06:28:55;100268.03;;;17.67;100.00
3917;BME280;1973;50.518;7.318;2022-09-09T06:31:23;100268.34;;;17.76;100.00
3917;BME280;1973;50.518;7.318;2022-09-09T06:33:56;100270.56;;;17.79;100.00
3917;BME280;1973;50.518;7.318;2022-09-09T06:36:35;100272.22;;;17.85;100.00
3917;BME280;1973;50.518;7.318;2022-09-09T06:39:04;100264.72;;;17.90;100.00
3917;BME280;1973;50.518;7.318;2022-09-09T06:41:35;100268.91;;;17.98;100.00
3917;BME280;1973;50.518;7.318;2022-09-09T06:44:01;100266.16;;;18.03;100.00
3917;BME280;1973;50.518;7.318;2022-09-09T06:46:30;100263.91;;;18.10;100.00
3917;BME280;1973;50.518;7.318;2022-09-09T06:48:59;100261.94;;;18.16;100.00
3917;BME280;1973;50.518;7.318;2022-09-09T06:51:31;100275.31;;;18.19;100.00
3917;BME280;1973;50.518;7.318;2022-09-09T06:53:59;100277.00;;;18.25;100.00
3917;BME280;1973;50.518;7.318;2022-09-09T06:56:34;100263.63;;;18.27;100.00
3917;BME280;1973;50.518;7.318;2022-09-09T06:59:05;100277.53;;;18.37;100.00
3917;BME280;1973;50.518;7.318;2022-09-09T07:01:35;100266.41;;;18.42;100.00
3917;BME280;1973;50.518;7.318;2022-09-09T07:04:03;100268.63;;;18.45;100.00
3917;BME280;1973;50.518;7.318;2022-09-09T07:06:35;100267.25;;;18.53;100.00
3917;BME280;1973;50.518;7.318;2022-09-09T07:09:07;100266.69;;;18.61;100.00
3917;BME280;1973;50.518;7.318;2022-09-09T07:11:38;100280.91;;;18.64;100.00
3917;BME280;1973;50.518;7.318;2022-09-09T07:14:05;100272.81;;;18.73;100.00
3917;BME280;1973;50.518;7.318;2022-09-09T07:16:31;100269.72;;;18.74;100.00
3917;BME280;1973;50.518;7.318;2022-09-09T07:18:59;100265.50;;;18.82;100.00
3917;BME280;1973;50.518;7.318;2022-09-09T07:21:28;100280.88;;;18.79;100.00
3917;BME280;1973;50.518;7.318;2022-09-09T07:23:55;100275.00;;;18.81;100.00
3917;BME280;1973;50.518;7.318;2022-09-09T07:26:24;100289.78;;;18.86;100.00
3917;BME280;1973;50.518;7.318;2022-09-09T07:28:51;100292.59;;;18.76;100.00
3917;BME280;1973;50.518;7.318;2022-09-09T07:31:20;100290.34;;;18.83;100.00
3917;BME280;1973;50.518;7.318;2022-09-09T07:33:47;100266.88;;;18.94;100.00
3917;BME280;1973;50.518;7.318;2022-09-09T07:38:46;100298.69;;;18.99;100.00
3917;BME280;1973;50.518;7.318;2022-09-09T07:41:16;100285.25;;;19.06;100.00
3917;BME280;1973;50.518;7.318;2022-09-09T07:43:45;100304.81;;;19.06;100.00
3917;BME280;1973;50.518;7.318;2022-09-09T07:46:13;100290.28;;;19.14;100.00
3917;BME280;1973;50.518;7.318;2022-09-09T07:48:44;100282.97;;;19.23;100.00
3917;BME280;1973;50.518;7.318;2022-09-09T07:51:14;100285.22;;;19.21;100.00
3917;BME280;1973;50.518;7.318;2022-09-09T07:53:45;100276.53;;;19.22;100.00
3917;BME280;1973;50.518;7.318;2022-09-09T07:56:14;100284.06;;;19.27;100.00
3917;BME280;1973;50.518;7.318;2022-09-09T07:58:45;100285.22;;;19.21;100.00
3917;BME280;1973;50.518;7.318;2022-09-09T08:01:18;100276.00;;;19.20;100.00
3917;BME280;1973;50.518;7.318;2022-09-09T08:03:46;100294.34;;;19.36;100.00
3917;BME280;1973;50.518;7.318;2022-09-09T08:06:13;100298.53;;;19.44;100.00
3917;BME280;1973;50.518;7.318;2022-09-09T08:08:40;100293.75;;;19.55;100.00
3917;BME280;1973;50.518;7.318;2022-09-09T08:11:11;100310.25;;;19.46;100.00
3917;BME280;1973;50.518;7.318;2022-09-09T08:13:39;100306.91;;;19.39;100.00
3917;BME280;1973;50.518;7.318;2022-09-09T08:16:07;100320.34;;;19.32;100.00
3917;BME280;1973;50.518;7.318;2022-09-09T08:18:35;100310.03;;;19.22;100.00
3917;BME280;1973;50.518;7.318;2022-09-09T08:21:10;100323.19;;;19.12;100.00
3917;BME280;1973;50.518;7.318;2022-09-09T08:23:41;100309.75;;;19.19;100.00
3917;BME280;1973;50.518;7.318;2022-09-09T08:26:13;100311.44;;;19.20;100.00
3917;BME280;1973;50.518;7.318;2022-09-09T08:28:41;100320.34;;;19.32;100.00
3917;BME280;1973;50.518;7.318;2022-09-09T08:31:11;100306.91;;;19.39;100.00
3917;BME280;1973;50.518;7.318;2022-09-09T08:33:38;100311.13;;;19.41;100.00
3917;BME280;1973;50.518;7.318;2022-09-09T08:36:05;100302.13;;;19.55;100.00
3917;BME280;1973;50.518;7.318;2022-09-09T08:38:33;100320.19;;;19.67;100.00
3917;BME280;1973;50.518;7.318;2022-09-09T08:44:06;100303.28;;;19.92;100.00
3917;BME280;1973;50.518;7.318;2022-09-09T08:49:44;100304.28;;;20.07;100.00
3917;BME280;1973;50.518;7.318;2022-09-09T08:52:25;100310.81;;;19.97;100.00
3917;BME280;1973;50.518;7.318;2022-09-09T08:54:52;100316.63;;;20.06;100.00
3917;BME280;1973;50.518;7.318;2022-09-09T08:57:27;100329.09;;;20.18;100.00
3917;BME280;1973;50.518;7.318;2022-09-09T08:59:55;100320.94;;;20.27;100.00
3917;BME280;1973;50.518;7.318;2022-09-09T09:08:06;100316.09;;;20.43;100.00
3917;BME280;1973;50.518;7.318;2022-09-09T09:10:50;100317.81;;;20.67;99.97
3917;BME280;1973;50.518;7.318;2022-09-09T09:13:26;100317.06;;;20.85;98.28
3917;BME280;1973;50.518;7.318;2022-09-09T09:16:02;100315.00;;;20.96;96.11
3917;BME280;1973;50.518;7.318;2022-09-09T09:18:32;100325.84;;;21.03;96.40
3917;BME280;1973;50.518;7.318;2022-09-09T09:21:20;100306.84;;;21.00;90.12
3917;BME280;1973;50.518;7.318;2022-09-09T09:23:58;100319.53;;;20.92;87.88
3917;BME280;1973;50.518;7.318;2022-09-09T09:26:31;100321.66;;;20.76;87.78
3917;BME280;1973;50.518;7.318;2022-09-09T09:29:01;100323.03;;;20.79;91.66
3917;BME280;1973;50.518;7.318;2022-09-09T09:31:34;100310.47;;;20.76;92.14
3917;BME280;1973;50.518;7.318;2022-09-09T09:34:00;100318.38;;;20.69;91.50
3917;BME280;1973;50.518;7.318;2022-09-09T09:36:40;100321.22;;;20.64;89.69
3917;BME280;1973;50.518;7.318;2022-09-09T09:39:07;100323.97;;;20.69;91.50
3917;BME280;1973;50.518;7.318;2022-09-09T09:41:56;100322.78;;;20.75;90.35
3917;BME280;1973;50.518;7.318;2022-09-09T09:44:29;100312.06;;;20.82;88.73
3917;BME280;1973;50.518;7.318;2022-09-09T09:47:14;100309.16;;;20.93;87.41
3917;BME280;1973;50.518;7.318;2022-09-09T09:49:54;100329.72;;;20.83;85.71
3917;BME280;1973;50.518;7.318;2022-09-09T09:52:24;100312.47;;;20.71;86.01
3917;BME280;1973;50.518;7.318;2022-09-09T09:54:52;100319.97;;;20.75;86.15
3917;BME280;1973;50.518;7.318;2022-09-09T09:57:24;100322.31;;;20.63;83.86
3917;BME280;1973;50.518;7.318;2022-09-09T10:00:15;100334.16;;;20.55;83.48
3917;BME280;1973;50.518;7.318;2022-09-09T10:02:45;100315.91;;;20.63;83.93
3917;BME280;1973;50.518;7.318;2022-09-09T10:07:45;100321.44;;;20.68;84.53
3917;BME280;1973;50.518;7.318;2022-09-09T10:10:26;100318.91;;;20.71;85.15
3917;BME280;1973;50.518;7.318;2022-09-09T10:13:04;100317.66;;;20.82;85.27
3917;BME280;1973;50.518;7.318;2022-09-09T10:15:53;100318.75;;;20.86;84.77
3917;BME280;1973;50.518;7.318;2022-09-09T10:21:37;100309.22;;;20.87;81.80
3917;BME280;1973;50.518;7.318;2022-09-09T10:24:37;100328.88;;;20.82;81.93
3917;BME280;1973;50.518;7.318;2022-09-09T10:30:14;100316.03;;;21.05;79.20
3917;BME280;1973;50.518;7.318;2022-09-09T10:49:32;100282.75;;;22.58;64.77
3917;BME280;1973;50.518;7.318;2022-09-09T10:54:57;100278.41;;;22.66;64.18
3917;BME280;1973;50.518;7.318;2022-09-09T10:57:31;100254.09;;;22.61;65.56
3917;BME280;1973;50.518;7.318;2022-09-09T11:00:06;100260.06;;;22.41;63.94
3917;BME280;1973;50.518;7.318;2022-09-09T11:02:40;100275.13;;;22.13;66.87
3917;BME280;1973;50.518;7.318;2022-09-09T11:07:43;100280.78;;;21.70;71.48
3917;BME280;1973;50.518;7.318;2022-09-09T11:10:24;100267.97;;;21.64;71.77
3917;BME280;1973;50.518;7.318;2022-09-09T11:12:56;100280.88;;;21.65;74.74
3917;BME280;1973;50.518;7.318;2022-09-09T11:15:35;100274.69;;;21.45;77.91
3917;BME280;1973;50.518;7.318;2022-09-09T11:18:04;100286.88;;;21.35;78.45
3917;BME280;1973;50.518;7.318;2022-09-09T11:20:33;100276.16;;;21.18;79.55
3917;BME280;1973;50.518;7.318;2022-09-09T11:23:10;100281.47;;;21.20;80.80
3917;BME280;1973;50.518;7.318;2022-09-09T11:25:58;100286.41;;;20.99;79.18
3917;BME280;1973;50.518;7.318;2022-09-09T11:31:33;100292.09;;;20.94;81.00
3917;BME280;1973;50.518;7.318;2022-09-09T11:34:19;100298.44;;;21.00;81.74
3917;BME280;1973;50.518;7.318;2022-09-09T11:40:08;100295.03;;;21.03;86.46
3917;BME280;1973;50.518;7.318;2022-09-09T11:42:40;100291.72;;;21.01;85.58
3917;BME280;1973;50.518;7.318;2022-09-09T11:45:19;100295.00;;;21.13;84.26
3917;BME280;1973;50.518;7.318;2022-09-09T11:47:54;100291.53;;;21.21;84.90
3917;BME280;1973;50.518;7.318;2022-09-09T11:52:48;100276.88;;;22.41;75.69
3917;BME280;1973;50.518;7.318;2022-09-09T12:00:48;100245.81;;;23.38;59.91
3917;BME280;1973;50.518;7.318;2022-09-09T12:03:39;100259.16;;;23.46;58.99
3917;BME280;1973;50.518;7.318;2022-09-09T12:06:17;100243.25;;;23.77;60.89
3917;BME280;1973;50.518;7.318;2022-09-09T12:08:51;100240.03;;;24.20;58.93
3917;BME280;1973;50.518;7.318;2022-09-09T12:11:25;100241.44;;;24.31;53.73
3917;BME280;1973;50.518;7.318;2022-09-09T12:13:54;100244.59;;;24.60;55.73
3917;BME280;1973;50.518;7.318;2022-09-09T12:16:35;100235.72;;;24.45;52.40
3917;BME280;1973;50.518;7.318;2022-09-09T12:19:23;100235.84;;;24.93;50.26
3917;BME280;1973;50.518;7.318;2022-09-09T12:22:03;100233.16;;;24.65;48.12
3917;BME280;1973;50.518;7.318;2022-09-09T12:24:41;100225.94;;;24.73;47.92
3917;BME280;1973;50.518;7.318;2022-09-09T12:27:44;100230.13;;;25.15;45.33
3917;BME280;1973;50.518;7.318;2022-09-09T12:30:16;100226.69;;;25.35;45.51
3917;BME280;1973;50.518;7.318;2022-09-09T12:32:43;100213.16;;;25.54;47.29
3917;BME280;1973;50.518;7.318;2022-09-09T12:35:26;100236.63;;;25.33;44.28
3917;BME280;1973;50.518;7.318;2022-09-09T12:37:58;100238.59;;;24.84;46.37
3917;BME280;1973;50.518;7.318;2022-09-09T12:40:31;100225.00;;;24.55;47.76
3917;BME280;1973;50.518;7.318;2022-09-09T12:43:14;100220.31;;;24.42;48.65
3917;BME280;1973;50.518;7.318;2022-09-09T12:45:42;100228.34;;;24.13;49.33
3917;BME280;1973;50.518;7.318;2022-09-09T12:48:10;100215.91;;;23.92;49.75
3917;BME280;1973;50.518;7.318;2022-09-09T12:50:44;100229.22;;;23.77;50.06
3917;BME280;1973;50.518;7.318;2022-09-09T12:53:26;100213.91;;;23.70;49.52
3917;BME280;1973;50.518;7.318;2022-09-09T12:56:00;100213.63;;;23.71;50.66
3917;BME280;1973;50.518;7.318;2022-09-09T12:58:30;100207.47;;;23.69;50.21
3917;BME280;1973;50.518;7.318;2022-09-09T13:01:02;100213.16;;;23.42;51.30
3917;BME280;1973;50.518;7.318;2022-09-09T13:03:42;100203.13;;;23.36;51.59
3917;BME280;1973;50.518;7.318;2022-09-09T13:06:25;100208.06;;;23.31;51.41
3917;BME280;1973;50.518;7.318;2022-09-09T13:08:58;100202.97;;;23.19;52.20
3917;BME280;1973;50.518;7.318;2022-09-09T13:11:37;100194.53;;;23.19;52.56
3917;BME280;1973;50.518;7.318;2022-09-09T13:14:05;100188.41;;;23.17;52.50
3917;BME280;1973;50.518;7.318;2022-09-09T13:16:34;100191.72;;;23.19;52.51
3917;BME280;1973;50.518;7.318;2022-09-09T13:19:09;100190.78;;;23.10;52.17
3917;BME280;1973;50.518;7.318;2022-09-09T13:21:39;100187.97;;;23.10;52.40
3917;BME280;1973;50.518;7.318;2022-09-09T13:24:41;100178.25;;;22.94;52.44
3917;BME280;1973;50.518;7.318;2022-09-09T13:27:28;100177.81;;;22.87;54.02
3917;BME280;1973;50.518;7.318;2022-09-09T13:29:56;100182.19;;;22.93;53.98
3917;BME280;1973;50.518;7.318;2022-09-09T13:32:24;100172.00;;;22.83;52.89
3917;BME280;1973;50.518;7.318;2022-09-09T13:34:58;100173.66;;;22.84;52.50
3917;BME280;1973;50.518;7.318;2022-09-09T13:37:36;100167.09;;;22.89;53.11
3917;BME280;1973;50.518;7.318;2022-09-09T13:40:04;100174.06;;;22.77;53.55
3917;BME280;1973;50.518;7.318;2022-09-09T13:42:34;100175.84;;;22.87;53.27
3917;BME280;1973;50.518;7.318;2022-09-09T13:45:05;100180.94;;;22.71;53.98
3917;BME280;1973;50.518;7.318;2022-09-09T13:47:33;100225.22;;;22.74;55.96
3917;BME280;1973;50.518;7.318;2022-09-09T13:52:52;100226.06;;;22.10;88.23
3917;BME280;1973;50.518;7.318;2022-09-09T13:55:21;100194.19;;;21.88;87.47
3917;BME280;1973;50.518;7.318;2022-09-09T13:57:56;100195.19;;;21.78;92.15
3917;BME280;1973;50.518;7.318;2022-09-09T14:00:23;100205.22;;;21.65;95.25
3917;BME280;1973;50.518;7.318;2022-09-09T14:02:50;100204.59;;;21.50;100.00
3917;BME280;1973;50.518;7.318;2022-09-09T14:05:18;100214.56;;;21.37;100.00
3917;BME280;1973;50.518;7.318;2022-09-09T14:07:45;100215.69;;;21.17;100.00
3917;BME280;1973;50.518;7.318;2022-09-09T14:10:17;100229.91;;;20.97;100.00
3917;BME280;1973;50.518;7.318;2022-09-09T14:12:44;100239.44;;;20.72;100.00
3917;BME280;1973;50.518;7.318;2022-09-09T14:15:12;100249.38;;;20.55;100.00
3917;BME280;1973;50.518;7.318;2022-09-09T14:17:38;100254.66;;;20.27;100.00
3917;BME280;1973;50.518;7.318;2022-09-09T14:20:06;100255.91;;;20.11;100.00
3917;BME280;1973;50.518;7.318;2022-09-09T14:22:36;100257.13;;;20.00;100.00
3917;BME280;1973;50.518;7.318;2022-09-09T14:25:03;100252.59;;;20.09;100.00
3917;BME280;1973;50.518;7.318;2022-09-09T14:27:29;100256.47;;;20.13;100.00
3917;BME280;1973;50.518;7.318;2022-09-09T14:29:56;100260.41;;;20.07;100.00
3917;BME280;1973;50.518;7.318;2022-09-09T14:32:23;100260.72;;;20.06;100.00
3917;BME280;1973;50.518;7.318;2022-09-09T14:34:50;100258.44;;;20.13;100.00
3917;BME280;1973;50.518;7.318;2022-09-09T14:37:17;100253.47;;;20.00;100.00
3917;BME280;1973;50.518;7.318;2022-09-09T14:39:44;100258.53;;;20.03;100.00
3917;BME280;1973;50.518;7.318;2022-09-09T14:42:11;100248.16;;;20.03;100.00
3917;BME280;1973;50.518;7.318;2022-09-09T14:44:37;100241.66;;;20.13;100.00
3917;BME280;1973;50.518;7.318;2022-09-09T14:47:07;100241.41;;;20.09;100.00
3917;BME280;1973;50.518;7.318;2022-09-09T14:49:35;100238.56;;;20.14;100.00
3917;BME280;1973;50.518;7.318;2022-09-09T14:52:01;100238.22;;;20.21;100.00
3917;BME280;1973;50.518;7.318;2022-09-09T14:54:28;100237.06;;;20.27;100.00
3917;BME280;1973;50.518;7.318;2022-09-09T14:56:55;100237.34;;;20.30;100.00
3917;BME280;1973;50.518;7.318;2022-09-09T14:59:23;100239.59;;;20.28;100.00